createdAt,value
2017-07-28T00:00:34.833Z,19.5
2017-07-28T00:01:36.859Z,19.5
2017-07-28T00:02:39.227Z,19.5
2017-07-28T00:03:41.584Z,19.5
2017-07-28T00:04:43.613Z,19.5
2017-07-28T00:05:45.624Z,19.5
2017-07-28T00:06:47.656Z,19.5
2017-07-28T00:07:49.681Z,19.5
2017-07-28T00:08:52.038Z,19.4
2017-07-28T00:09:54.404Z,19.4
2017-07-28T00:10:56.429Z,19.4
2017-07-28T00:11:58.781Z,19.4
2017-07-28T00:13:01.143Z,19.4
2017-07-28T00:14:03.525Z,19.4
2017-07-28T00:15:05.553Z,19.4
2017-07-28T00:16:07.914Z,19.4
2017-07-28T00:17:10.282Z,19.4
2017-07-28T00:18:12.297Z,19.4
2017-07-28T00:19:14.327Z,19.4
2017-07-28T00:20:16.356Z,19.4
2017-07-28T00:21:18.726Z,19.4
2017-07-28T00:22:20.757Z,19.4
2017-07-28T00:23:23.143Z,19.4
2017-07-28T00:24:25.157Z,19.4
2017-07-28T00:25:27.529Z,19.4
2017-07-28T00:26:29.552Z,19.4
2017-07-28T00:27:31.925Z,19.4
2017-07-28T00:28:34.280Z,19.4
2017-07-28T00:29:36.643Z,19.4
2017-07-28T00:30:38.676Z,19.4
2017-07-28T00:31:40.693Z,19.4
2017-07-28T00:32:42.728Z,19.4
2017-07-28T00:33:45.092Z,19.4
2017-07-28T00:34:47.118Z,19.4
2017-07-28T00:35:49.141Z,19.4
2017-07-28T00:36:51.167Z,19.4
2017-07-28T00:37:53.190Z,19.4
2017-07-28T00:38:55.214Z,19.4
2017-07-28T00:39:57.580Z,19.4
2017-07-28T00:40:59.599Z,19.4
2017-07-28T00:42:01.980Z,19.4
2017-07-28T00:43:04.685Z,19.4
2017-07-28T00:44:06.706Z,19.4
2017-07-28T00:45:08.724Z,19.4
2017-07-28T00:46:11.102Z,19.3
2017-07-28T00:47:13.123Z,19.3
2017-07-28T00:48:15.148Z,19.3
2017-07-28T00:49:17.192Z,19.3
2017-07-28T00:50:19.549Z,19.2
2017-07-28T00:51:21.573Z,19.2
2017-07-28T00:52:23.597Z,19.2
2017-07-28T00:53:25.619Z,19.2
2017-07-28T00:54:28.332Z,19.2
2017-07-28T00:55:30.364Z,19.2
2017-07-28T00:56:32.383Z,19.2
2017-07-28T00:57:34.411Z,19.1
2017-07-28T00:58:36.769Z,19.1
2017-07-28T00:59:38.799Z,19.1
2017-07-28T01:00:40.830Z,19
2017-07-28T01:01:43.184Z,19.1
2017-07-28T01:02:45.208Z,19.1
2017-07-28T01:03:47.245Z,19.1
2017-07-28T01:04:49.945Z,19.1
2017-07-28T01:05:51.967Z,19.1
2017-07-28T01:06:53.989Z,19
2017-07-28T01:07:56.368Z,19
2017-07-28T01:08:58.387Z,19
2017-07-28T01:10:00.761Z,18.9
2017-07-28T01:11:02.786Z,18.9
2017-07-28T01:12:04.814Z,18.9
2017-07-28T01:13:07.170Z,18.8
2017-07-28T01:14:09.196Z,18.8
2017-07-28T01:15:11.208Z,18.8
2017-07-28T01:16:13.251Z,18.7
2017-07-28T01:17:15.269Z,18.7
2017-07-28T01:18:17.635Z,18.7
2017-07-28T01:19:19.673Z,18.7
2017-07-28T01:20:21.690Z,18.7
2017-07-28T01:21:23.711Z,18.7
2017-07-28T01:22:25.748Z,18.7
2017-07-28T01:23:27.763Z,18.7
2017-07-28T01:24:29.789Z,18.7
2017-07-28T01:25:31.808Z,18.7
2017-07-28T01:26:33.836Z,18.7
2017-07-28T01:27:36.203Z,18.7
2017-07-28T01:28:38.561Z,18.7
2017-07-28T01:29:40.585Z,18.7
2017-07-28T01:30:42.950Z,18.7
2017-07-28T01:31:44.966Z,18.7
2017-07-28T01:32:47.332Z,18.7
2017-07-28T01:33:49.685Z,18.7
2017-07-28T01:34:52.057Z,18.7
2017-07-28T01:35:54.407Z,18.7
2017-07-28T01:36:56.423Z,18.7
2017-07-28T01:37:58.779Z,18.7
2017-07-28T01:39:00.803Z,18.6
2017-07-28T01:40:03.163Z,18.6
2017-07-28T01:41:05.523Z,18.6
2017-07-28T01:42:07.560Z,18.6
2017-07-28T01:43:09.588Z,18.6
2017-07-28T01:44:11.950Z,18.6
2017-07-28T01:45:13.999Z,18.6
2017-07-28T01:46:16.036Z,18.6
2017-07-28T01:47:18.391Z,18.6
2017-07-28T01:48:20.409Z,18.6
2017-07-28T01:49:22.431Z,18.6
2017-07-28T01:50:24.458Z,18.7
2017-07-28T01:51:26.486Z,18.7
2017-07-28T01:52:28.498Z,18.7
2017-07-28T01:53:30.523Z,18.7
2017-07-28T01:54:32.542Z,18.7
2017-07-28T01:55:34.566Z,18.7
2017-07-28T01:56:36.584Z,18.7
2017-07-28T01:57:38.947Z,18.7
2017-07-28T01:58:40.977Z,18.7
2017-07-28T01:59:43.012Z,18.7
2017-07-28T02:00:45.034Z,18.7
2017-07-28T02:01:47.764Z,18.7
2017-07-28T02:02:50.123Z,18.7
2017-07-28T02:03:52.155Z,18.7
2017-07-28T02:04:54.191Z,18.7
2017-07-28T02:05:56.209Z,18.7
2017-07-28T02:06:58.575Z,18.7
2017-07-28T02:08:01.289Z,18.7
2017-07-28T02:09:04.326Z,18.7
2017-07-28T02:10:06.359Z,18.7
2017-07-28T02:11:08.736Z,18.7
2017-07-28T02:12:10.760Z,18.7
2017-07-28T02:13:13.130Z,18.6
2017-07-28T02:14:15.149Z,18.6
2017-07-28T02:15:17.525Z,18.5
2017-07-28T02:16:19.889Z,18.5
2017-07-28T02:17:21.901Z,18.4
2017-07-28T02:18:23.928Z,18.4
2017-07-28T02:19:26.291Z,18.4
2017-07-28T02:20:28.320Z,18.3
2017-07-28T02:21:30.343Z,18.3
2017-07-28T02:22:32.698Z,18.3
2017-07-28T02:23:34.720Z,18.3
2017-07-28T02:24:36.741Z,18.3
2017-07-28T02:25:38.761Z,18.3
2017-07-28T02:26:40.790Z,18.3
2017-07-28T02:27:42.815Z,18.3
2017-07-28T02:28:44.835Z,18.3
2017-07-28T02:29:46.861Z,18.3
2017-07-28T02:30:48.886Z,18.3
2017-07-28T02:31:51.244Z,18.3
2017-07-28T02:32:53.607Z,18.3
2017-07-28T02:33:55.977Z,18.3
2017-07-28T02:34:58.003Z,18.4
2017-07-28T02:36:00.358Z,18.3
2017-07-28T02:37:03.075Z,18.4
2017-07-28T02:38:05.450Z,18.4
2017-07-28T02:39:07.473Z,18.4
2017-07-28T02:40:09.871Z,18.4
2017-07-28T02:41:11.891Z,18.4
2017-07-28T02:42:13.916Z,18.4
2017-07-28T02:43:16.615Z,18.4
2017-07-28T02:44:18.978Z,18.5
2017-07-28T02:45:21.009Z,18.5
2017-07-28T02:46:23.366Z,18.5
2017-07-28T02:47:25.720Z,18.5
2017-07-28T02:48:27.745Z,18.5
2017-07-28T02:49:29.770Z,18.5
2017-07-28T02:50:32.462Z,18.5
2017-07-28T02:51:35.161Z,18.5
2017-07-28T02:52:37.536Z,18.6
2017-07-28T02:53:39.555Z,18.6
2017-07-28T02:54:41.910Z,18.6
2017-07-28T02:55:43.936Z,18.6
2017-07-28T02:56:45.963Z,18.6
2017-07-28T02:57:48.331Z,18.7
2017-07-28T02:58:50.348Z,18.7
2017-07-28T02:59:52.382Z,18.7
2017-07-28T03:00:54.400Z,18.7
2017-07-28T03:01:56.757Z,18.7
2017-07-28T03:02:58.776Z,18.7
2017-07-28T03:04:00.804Z,18.7
2017-07-28T03:05:02.827Z,18.7
2017-07-28T03:06:05.189Z,18.7
2017-07-28T03:07:07.202Z,18.7
2017-07-28T03:08:09.906Z,18.7
2017-07-28T03:09:12.270Z,18.7
2017-07-28T03:10:14.296Z,18.7
2017-07-28T03:11:16.327Z,18.7
2017-07-28T03:12:18.342Z,18.8
2017-07-28T03:13:20.372Z,18.8
2017-07-28T03:14:22.432Z,18.8
2017-07-28T03:15:24.452Z,18.8
2017-07-28T03:16:26.489Z,18.8
2017-07-28T03:17:28.507Z,18.9
2017-07-28T03:18:30.538Z,18.9
2017-07-28T03:19:32.893Z,18.9
2017-07-28T03:20:34.918Z,18.9
2017-07-28T03:21:36.938Z,18.9
2017-07-28T03:22:38.971Z,18.9
2017-07-28T03:23:41.000Z,18.8
2017-07-28T03:24:43.364Z,18.8
2017-07-28T03:25:45.724Z,18.8
2017-07-28T03:26:47.746Z,18.8
2017-07-28T03:27:49.774Z,18.8
2017-07-28T03:28:52.501Z,18.8
2017-07-28T03:29:54.530Z,18.8
2017-07-28T03:30:56.891Z,18.8
2017-07-28T03:31:59.257Z,18.8
2017-07-28T03:33:01.623Z,18.8
2017-07-28T03:34:03.643Z,18.8
2017-07-28T03:35:06.343Z,18.8
2017-07-28T03:36:09.051Z,18.8
2017-07-28T03:37:11.079Z,18.9
2017-07-28T03:38:13.100Z,18.9
2017-07-28T03:39:15.456Z,18.9
2017-07-28T03:40:17.519Z,18.9
2017-07-28T03:41:19.889Z,19
2017-07-28T03:42:22.247Z,19
2017-07-28T03:43:24.278Z,19
2017-07-28T03:44:26.300Z,19
2017-07-28T03:45:28.335Z,19
2017-07-28T03:46:30.362Z,19.1
2017-07-28T03:47:32.745Z,19.1
2017-07-28T03:48:35.112Z,19.1
2017-07-28T03:49:37.130Z,19.1
2017-07-28T03:50:39.153Z,19.1
2017-07-28T03:51:41.203Z,19.1
2017-07-28T03:52:43.596Z,19
2017-07-28T03:53:45.616Z,19
2017-07-28T03:54:47.642Z,19
2017-07-28T03:55:49.665Z,19
2017-07-28T03:56:52.024Z,18.9
2017-07-28T03:57:54.721Z,19
2017-07-28T03:58:56.749Z,19
2017-07-28T03:59:59.123Z,18.9
2017-07-28T04:01:01.837Z,18.9
2017-07-28T04:02:03.875Z,18.9
2017-07-28T04:03:05.905Z,18.9
2017-07-28T04:04:08.610Z,18.9
2017-07-28T04:05:10.656Z,18.9
2017-07-28T04:06:13.028Z,18.9
2017-07-28T04:07:15.395Z,19
2017-07-28T04:08:18.095Z,19
2017-07-28T04:09:20.463Z,19
2017-07-28T04:10:22.496Z,19
2017-07-28T04:11:24.516Z,19
2017-07-28T04:12:27.218Z,19
2017-07-28T04:13:29.602Z,19
2017-07-28T04:14:31.630Z,19
2017-07-28T04:15:33.989Z,19.1
2017-07-28T04:16:36.015Z,19
2017-07-28T04:17:38.046Z,19
2017-07-28T04:18:40.068Z,19
2017-07-28T04:19:42.086Z,18.9
2017-07-28T04:20:44.455Z,19
2017-07-28T04:21:46.820Z,19
2017-07-28T04:22:49.174Z,19
2017-07-28T04:23:51.545Z,18.9
2017-07-28T04:24:53.907Z,18.9
2017-07-28T04:25:56.280Z,18.9
2017-07-28T04:26:58.309Z,18.9
2017-07-28T04:28:00.340Z,18.9
2017-07-28T04:29:02.726Z,19
2017-07-28T04:30:05.423Z,18.9
2017-07-28T04:31:07.443Z,18.9
2017-07-28T04:32:09.481Z,19
2017-07-28T04:33:11.500Z,18.9
2017-07-28T04:34:13.526Z,18.9
2017-07-28T04:35:15.896Z,18.9
2017-07-28T04:36:17.922Z,18.9
2017-07-28T04:37:19.971Z,18.9
2017-07-28T04:38:21.990Z,18.9
2017-07-28T04:39:24.366Z,19
2017-07-28T04:40:26.727Z,18.9
2017-07-28T04:41:28.765Z,19
2017-07-28T04:42:31.139Z,19
2017-07-28T04:43:33.162Z,19
2017-07-28T04:44:35.193Z,19
2017-07-28T04:45:37.226Z,19
2017-07-28T04:46:39.258Z,19
2017-07-28T04:47:41.302Z,19
2017-07-28T04:48:43.670Z,19.1
2017-07-28T04:49:45.695Z,19
2017-07-28T04:50:47.722Z,19.1
2017-07-28T04:51:49.746Z,19.1
2017-07-28T04:52:51.779Z,19.1
2017-07-28T04:53:53.792Z,19.1
2017-07-28T04:55:08.593Z,19.1
2017-07-28T04:56:10.623Z,19.1
2017-07-28T04:57:12.658Z,19.2
2017-07-28T04:58:15.015Z,19.2
2017-07-28T04:59:17.050Z,19.2
2017-07-28T05:00:19.417Z,19.2
2017-07-28T05:01:21.448Z,19.2
2017-07-28T05:02:23.822Z,19.2
2017-07-28T05:03:25.858Z,19.2
2017-07-28T05:04:27.888Z,19.3
2017-07-28T05:05:30.275Z,19.3
2017-07-28T05:06:32.300Z,19.3
2017-07-28T05:07:34.330Z,19.3
2017-07-28T05:08:36.364Z,19.3
2017-07-28T05:09:38.410Z,19.3
2017-07-28T05:10:41.111Z,19.3
2017-07-28T05:11:43.141Z,19.3
2017-07-28T05:12:45.489Z,19.3
2017-07-28T05:13:47.524Z,19.3
2017-07-28T05:14:49.851Z,19.3
2017-07-28T05:15:52.564Z,19.3
2017-07-28T05:16:54.934Z,19.3
2017-07-28T05:17:56.962Z,19.3
2017-07-28T05:18:59.326Z,19.3
2017-07-28T05:20:01.378Z,19.3
2017-07-28T05:21:03.406Z,19.3
2017-07-28T05:22:05.422Z,19.3
2017-07-28T05:23:07.462Z,19.3
2017-07-28T05:24:09.482Z,19.4
2017-07-28T05:25:11.509Z,19.4
2017-07-28T05:26:13.539Z,19.4
2017-07-28T05:27:15.559Z,19.5
2017-07-28T05:28:18.259Z,19.5
2017-07-28T05:29:20.979Z,19.5
2017-07-28T05:30:23.002Z,19.6
2017-07-28T05:31:25.028Z,19.6
2017-07-28T05:32:27.052Z,19.6
2017-07-28T05:33:29.410Z,19.6
2017-07-28T05:34:31.446Z,19.7
2017-07-28T05:35:33.812Z,19.7
2017-07-28T05:36:35.853Z,19.8
2017-07-28T05:37:37.882Z,19.8
2017-07-28T05:38:40.233Z,19.8
2017-07-28T05:39:42.263Z,19.8
2017-07-28T05:40:44.277Z,19.9
2017-07-28T05:41:46.297Z,19.9
2017-07-28T05:42:48.322Z,19.9
2017-07-28T05:43:50.350Z,19.9
2017-07-28T05:44:52.718Z,19.9
2017-07-28T05:45:54.738Z,19.9
2017-07-28T05:46:56.764Z,19.9
2017-07-28T05:47:58.830Z,20
2017-07-28T05:49:01.187Z,20
2017-07-28T05:50:03.899Z,20
2017-07-28T05:51:05.922Z,20
2017-07-28T05:52:08.299Z,20
2017-07-28T05:53:10.664Z,20
2017-07-28T05:54:12.681Z,20
2017-07-28T05:55:15.066Z,20
2017-07-28T05:56:17.444Z,20
2017-07-28T05:57:19.805Z,20.1
2017-07-28T05:58:22.196Z,20.1
2017-07-28T05:59:24.321Z,20.1
2017-07-28T06:00:26.694Z,20.1
2017-07-28T06:01:29.423Z,20.2
2017-07-28T06:02:31.804Z,20.2
2017-07-28T06:03:34.137Z,20.2
2017-07-28T06:04:36.272Z,20.2
2017-07-28T06:05:38.638Z,20.3
2017-07-28T06:06:40.668Z,20.3
2017-07-28T06:07:42.695Z,20.3
2017-07-28T06:08:44.992Z,20.3
2017-07-28T06:09:47.016Z,20.3
2017-07-28T06:10:50.047Z,20.3
2017-07-28T06:11:52.081Z,20.3
2017-07-28T06:12:54.107Z,20.3
2017-07-28T06:13:56.135Z,20.3
2017-07-28T06:14:58.161Z,20.3
2017-07-28T06:16:00.182Z,20.3
2017-07-28T06:17:02.567Z,20.3
2017-07-28T06:18:04.595Z,20.3
2017-07-28T06:19:06.627Z,20.3
2017-07-28T06:20:08.996Z,20.4
2017-07-28T06:21:11.019Z,20.4
2017-07-28T06:22:13.057Z,20.4
2017-07-28T06:23:15.432Z,20.5
2017-07-28T06:24:17.471Z,20.5
2017-07-28T06:25:19.497Z,20.5
2017-07-28T06:26:21.520Z,20.5
2017-07-28T06:27:23.889Z,20.6
2017-07-28T06:28:27.282Z,20.6
2017-07-28T06:29:29.306Z,20.6
2017-07-28T06:30:32.025Z,20.6
2017-07-28T06:31:34.056Z,20.6
2017-07-28T06:32:36.421Z,20.7
2017-07-28T06:33:38.453Z,20.7
2017-07-28T06:34:40.487Z,20.7
2017-07-28T06:35:42.530Z,20.7
2017-07-28T06:36:44.552Z,20.7
2017-07-28T06:37:46.589Z,20.7
2017-07-28T06:38:49.290Z,20.6
2017-07-28T06:39:51.649Z,20.6
2017-07-28T06:40:53.693Z,20.7
2017-07-28T06:41:56.401Z,20.7
2017-07-28T06:42:58.418Z,20.7
2017-07-28T06:44:00.501Z,20.7
2017-07-28T06:45:03.210Z,20.8
2017-07-28T06:46:05.245Z,20.7
2017-07-28T06:47:07.287Z,20.8
2017-07-28T06:48:09.315Z,20.8
2017-07-28T06:49:11.345Z,20.8
2017-07-28T06:50:13.365Z,20.8
2017-07-28T06:51:15.731Z,20.8
2017-07-28T06:52:17.766Z,20.8
2017-07-28T06:53:19.786Z,20.8
2017-07-28T06:54:21.810Z,20.9
2017-07-28T06:55:24.178Z,20.9
2017-07-28T06:56:26.209Z,20.9
2017-07-28T06:57:28.569Z,20.9
2017-07-28T06:58:30.937Z,20.9
2017-07-28T06:59:32.970Z,20.9
2017-07-28T07:00:35.006Z,21
2017-07-28T07:01:37.029Z,21
2017-07-28T07:02:39.398Z,21
2017-07-28T07:03:41.758Z,21.1
2017-07-28T07:04:44.485Z,21.1
2017-07-28T07:05:46.852Z,21.2
2017-07-28T07:06:49.221Z,21.2
2017-07-28T07:07:51.252Z,21.2
2017-07-28T07:08:53.273Z,21.3
2017-07-28T07:09:55.301Z,21.3
2017-07-28T07:10:57.346Z,21.4
2017-07-28T07:11:59.375Z,21.4
2017-07-28T07:13:01.397Z,21.5
2017-07-28T07:14:03.772Z,21.5
2017-07-28T07:15:06.481Z,21.5
2017-07-28T07:16:08.939Z,21.5
2017-07-28T07:17:10.968Z,21.6
2017-07-28T07:18:12.988Z,21.6
2017-07-28T07:19:15.020Z,21.6
2017-07-28T07:20:17.380Z,21.6
2017-07-28T07:21:19.413Z,21.7
2017-07-28T07:22:21.449Z,21.7
2017-07-28T07:23:23.825Z,21.7
2017-07-28T07:24:25.859Z,21.8
2017-07-28T07:25:27.884Z,21.8
2017-07-28T07:26:29.913Z,21.8
2017-07-28T07:27:32.679Z,21.8
2017-07-28T07:28:35.057Z,21.8
2017-07-28T07:29:37.084Z,21.8
2017-07-28T07:30:39.110Z,21.8
2017-07-28T07:31:41.129Z,21.8
2017-07-28T07:32:43.495Z,21.9
2017-07-28T07:33:45.869Z,22
2017-07-28T07:34:47.906Z,22
2017-07-28T07:35:49.955Z,22.1
2017-07-28T07:36:52.091Z,22.1
2017-07-28T07:37:55.137Z,22.2
2017-07-28T07:38:57.502Z,22.2
2017-07-28T07:39:59.536Z,22.2
2017-07-28T07:41:01.574Z,22.3
2017-07-28T07:42:03.609Z,22.3
2017-07-28T07:43:05.646Z,22.3
2017-07-28T07:44:07.660Z,22.4
2017-07-28T07:45:10.053Z,22.4
2017-07-28T07:46:12.084Z,22.4
2017-07-28T07:47:14.114Z,22.5
2017-07-28T07:48:16.142Z,22.5
2017-07-28T07:49:18.198Z,22.5
2017-07-28T07:50:20.584Z,22.5
2017-07-28T07:51:22.968Z,22.5
2017-07-28T07:52:25.327Z,22.5
2017-07-28T07:53:27.368Z,22.5
2017-07-28T07:54:29.733Z,22.6
2017-07-28T07:55:31.769Z,22.6
2017-07-28T07:56:33.812Z,22.6
2017-07-28T07:57:36.182Z,22.6
2017-07-28T07:58:38.556Z,22.6
2017-07-28T07:59:40.582Z,22.6
2017-07-28T08:00:42.961Z,22.5
2017-07-28T08:01:44.990Z,22.5
2017-07-28T08:02:47.027Z,22.5
2017-07-28T08:03:49.062Z,22.6
2017-07-28T08:04:51.095Z,22.6
2017-07-28T08:05:53.479Z,22.6
2017-07-28T08:06:55.845Z,22.6
2017-07-28T08:07:58.546Z,22.6
2017-07-28T08:09:00.576Z,22.7
2017-07-28T08:10:03.624Z,22.7
2017-07-28T08:11:05.661Z,22.8
2017-07-28T08:12:08.039Z,22.8
2017-07-28T08:13:10.060Z,22.8
2017-07-28T08:14:12.109Z,22.8
2017-07-28T08:15:14.479Z,22.8
2017-07-28T08:16:16.511Z,22.8
2017-07-28T08:17:18.893Z,22.9
2017-07-28T08:18:21.254Z,22.9
2017-07-28T08:19:23.278Z,22.9
2017-07-28T08:20:25.315Z,23
2017-07-28T08:21:27.683Z,23
2017-07-28T08:22:29.716Z,23
2017-07-28T08:23:32.084Z,23.1
2017-07-28T08:24:34.115Z,23.1
2017-07-28T08:25:36.491Z,23.1
2017-07-28T08:26:38.521Z,23.2
2017-07-28T08:27:41.226Z,23.1
2017-07-28T08:28:43.258Z,23.2
2017-07-28T08:29:45.294Z,23.1
2017-07-28T08:30:47.333Z,23.1
2017-07-28T08:31:49.357Z,23.1
2017-07-28T08:32:51.735Z,23.1
2017-07-28T08:33:54.109Z,23.1
2017-07-28T08:34:56.143Z,23.1
2017-07-28T08:35:58.179Z,23.2
2017-07-28T08:37:00.545Z,23.3
2017-07-28T08:38:02.579Z,23.3
2017-07-28T08:39:04.620Z,23.4
2017-07-28T08:40:06.981Z,23.4
2017-07-28T08:41:09.020Z,23.4
2017-07-28T08:42:11.052Z,23.4
2017-07-28T08:43:13.427Z,23.3
2017-07-28T08:44:15.793Z,23.2
2017-07-28T08:45:17.830Z,23.2
2017-07-28T08:46:19.882Z,23.1
2017-07-28T08:47:21.912Z,23
2017-07-28T08:48:24.272Z,23
2017-07-28T08:49:26.317Z,23
2017-07-28T08:50:28.339Z,23
2017-07-28T08:51:30.706Z,23.1
2017-07-28T08:52:32.742Z,23.2
2017-07-28T08:53:35.111Z,23.2
2017-07-28T08:54:37.149Z,23.2
2017-07-28T08:55:39.173Z,23.2
2017-07-28T08:56:41.537Z,23.3
2017-07-28T08:57:43.609Z,23.3
2017-07-28T08:58:45.630Z,23.3
2017-07-28T08:59:47.667Z,23.3
2017-07-28T09:00:49.698Z,23.4
2017-07-28T09:01:51.737Z,23.5
2017-07-28T09:02:53.766Z,23.5
2017-07-28T09:03:56.141Z,23.6
2017-07-28T09:04:58.239Z,23.7
2017-07-28T09:06:00.611Z,23.8
2017-07-28T09:07:02.639Z,23.8
2017-07-28T09:08:04.682Z,23.9
2017-07-28T09:09:06.717Z,24.1
2017-07-28T09:10:09.102Z,24.2
2017-07-28T09:11:11.155Z,24.3
2017-07-28T09:12:13.186Z,24.4
2017-07-28T09:13:15.235Z,24.5
2017-07-28T09:14:17.625Z,24.7
2017-07-28T09:15:19.656Z,24.8
2017-07-28T09:16:22.722Z,25
2017-07-28T09:17:25.106Z,25.1
2017-07-28T09:18:27.144Z,25.2
2017-07-28T09:19:29.168Z,25.3
2017-07-28T09:20:31.549Z,25.3
2017-07-28T09:21:33.939Z,25.4
2017-07-28T09:22:36.641Z,25.5
2017-07-28T09:23:39.029Z,25.6
2017-07-28T09:24:41.406Z,25.6
2017-07-28T09:25:43.466Z,25.7
2017-07-28T09:26:46.181Z,25.8
2017-07-28T09:27:48.887Z,25.9
2017-07-28T09:28:51.267Z,26
2017-07-28T09:29:53.308Z,26.1
2017-07-28T09:30:55.663Z,26.3
2017-07-28T09:31:58.379Z,26.4
2017-07-28T09:33:00.419Z,26.6
2017-07-28T09:34:02.796Z,26.7
2017-07-28T09:35:05.185Z,26.8
2017-07-28T09:36:07.907Z,26.8
2017-07-28T09:37:09.965Z,26.8
2017-07-28T09:38:12.000Z,26.9
2017-07-28T09:39:14.378Z,26.9
2017-07-28T09:40:16.781Z,27
2017-07-28T09:41:18.819Z,27.2
2017-07-28T09:42:21.218Z,27.3
2017-07-28T09:43:23.259Z,27.3
2017-07-28T09:44:25.291Z,27.3
2017-07-28T09:45:27.330Z,27.3
2017-07-28T09:46:29.672Z,27.4
2017-07-28T09:47:31.706Z,27.5
2017-07-28T09:48:33.744Z,27.6
2017-07-28T09:49:35.795Z,27.7
2017-07-28T09:50:37.853Z,27.8
2017-07-28T09:51:39.891Z,27.8
2017-07-28T09:52:42.265Z,27.8
2017-07-28T09:53:44.995Z,27.8
2017-07-28T09:54:47.030Z,28
2017-07-28T09:55:49.063Z,28.1
2017-07-28T09:56:51.111Z,28.2
2017-07-28T09:57:53.840Z,28.3
2017-07-28T09:58:55.884Z,28.5
2017-07-28T09:59:58.258Z,28.7
2017-07-28T10:01:00.299Z,28.8
2017-07-28T10:02:02.692Z,28.9
2017-07-28T10:03:04.724Z,29
2017-07-28T10:04:06.765Z,29
2017-07-28T10:05:09.146Z,29.1
2017-07-28T10:06:11.174Z,29.1
2017-07-28T10:07:13.216Z,29.1
2017-07-28T10:08:15.263Z,29
2017-07-28T10:09:17.301Z,29
2017-07-28T10:10:19.339Z,29
2017-07-28T10:11:21.711Z,29.1
2017-07-28T10:12:24.097Z,29.2
2017-07-28T10:13:26.147Z,29.3
2017-07-28T10:14:28.523Z,29.4
2017-07-28T10:15:30.901Z,29.5
2017-07-28T10:16:32.944Z,29.6
2017-07-28T10:17:34.986Z,29.6
2017-07-28T10:18:37.376Z,29.6
2017-07-28T10:19:39.421Z,29.6
2017-07-28T10:20:41.463Z,29.6
2017-07-28T10:21:43.497Z,29.5
2017-07-28T10:22:45.537Z,29.4
2017-07-28T10:23:47.599Z,29.4
2017-07-28T10:24:49.638Z,29.2
2017-07-28T10:25:51.682Z,29.2
2017-07-28T10:26:53.728Z,29
2017-07-28T10:27:56.110Z,28.9
2017-07-28T10:28:58.157Z,28.8
2017-07-28T10:30:00.539Z,28.7
2017-07-28T10:31:02.922Z,28.6
2017-07-28T10:32:04.962Z,28.7
2017-07-28T10:33:06.998Z,28.7
2017-07-28T10:34:09.037Z,28.8
2017-07-28T10:35:11.069Z,28.8
2017-07-28T10:36:13.440Z,28.9
2017-07-28T10:37:15.494Z,28.9
2017-07-28T10:38:17.525Z,28.9
2017-07-28T10:39:19.904Z,28.9
2017-07-28T10:40:21.953Z,28.9
2017-07-28T10:41:24.333Z,28.8
2017-07-28T10:42:26.380Z,28.8
2017-07-28T10:43:28.417Z,28.7
2017-07-28T10:44:30.498Z,28.7
2017-07-28T10:45:32.545Z,28.6
2017-07-28T10:46:34.911Z,28.5
2017-07-28T10:47:37.281Z,28.5
2017-07-28T10:48:39.314Z,28.4
2017-07-28T10:49:41.354Z,28.2
2017-07-28T10:50:44.069Z,28.1
2017-07-28T10:51:46.432Z,27.9
2017-07-28T10:52:48.489Z,27.8
2017-07-28T10:53:50.514Z,27.7
2017-07-28T10:54:52.561Z,27.6
2017-07-28T10:55:54.603Z,27.5
2017-07-28T10:56:56.643Z,27.5
2017-07-28T10:57:59.019Z,27.4
2017-07-28T10:59:01.058Z,27.4
2017-07-28T11:00:03.101Z,27.3
2017-07-28T11:01:05.829Z,27.3
2017-07-28T11:02:08.206Z,27.3
2017-07-28T11:03:10.569Z,27.3
2017-07-28T11:04:12.610Z,27.3
2017-07-28T11:05:14.646Z,27.4
2017-07-28T11:06:16.687Z,27.5
2017-07-28T11:07:18.732Z,27.5
2017-07-28T11:08:20.765Z,27.6
2017-07-28T11:09:22.805Z,27.7
2017-07-28T11:10:24.839Z,27.7
2017-07-28T11:11:26.870Z,27.8
2017-07-28T11:12:29.256Z,27.8
2017-07-28T11:13:31.304Z,27.8
2017-07-28T11:14:33.352Z,27.8
2017-07-28T11:15:35.395Z,27.8
2017-07-28T11:16:37.429Z,27.8
2017-07-28T11:17:39.819Z,27.7
2017-07-28T11:18:41.846Z,27.6
2017-07-28T11:19:44.225Z,27.6
2017-07-28T11:20:46.932Z,27.5
2017-07-28T11:21:48.967Z,27.5
2017-07-28T11:22:51.338Z,27.4
2017-07-28T11:23:53.371Z,27.4
2017-07-28T11:24:55.754Z,27.5
2017-07-28T11:25:57.785Z,27.4
2017-07-28T11:27:00.172Z,27.4
2017-07-28T11:28:02.882Z,27.4
2017-07-28T11:29:04.917Z,27.4
2017-07-28T11:30:07.300Z,27.3
2017-07-28T11:31:09.341Z,27.3
2017-07-28T11:32:11.718Z,27.3
2017-07-28T11:33:13.754Z,27.3
2017-07-28T11:34:15.788Z,27.2
2017-07-28T11:35:18.222Z,27.2
2017-07-28T11:36:20.254Z,27.1
2017-07-28T11:37:22.981Z,27
2017-07-28T11:38:25.035Z,26.9
2017-07-28T11:39:27.065Z,26.8
2017-07-28T11:40:29.094Z,26.7
2017-07-28T11:41:31.466Z,26.6
2017-07-28T11:42:33.505Z,26.5
2017-07-28T11:43:35.532Z,26.4
2017-07-28T11:44:37.920Z,26.3
2017-07-28T11:45:39.959Z,26.3
2017-07-28T11:46:42.328Z,26.3
2017-07-28T11:47:44.362Z,26.3
2017-07-28T11:48:46.390Z,26.4
2017-07-28T11:49:48.776Z,26.3
2017-07-28T11:50:50.829Z,26.3
2017-07-28T11:51:52.862Z,26.3
2017-07-28T11:52:54.911Z,26.3
2017-07-28T11:53:56.940Z,26.5
2017-07-28T11:54:58.970Z,26.6
2017-07-28T11:56:01.357Z,26.7
2017-07-28T11:57:03.727Z,26.9
2017-07-28T11:58:06.106Z,27
2017-07-28T11:59:08.145Z,27.2
2017-07-28T12:00:10.520Z,27.3
2017-07-28T12:01:12.552Z,27.4
2017-07-28T12:02:14.609Z,27.6
2017-07-28T12:03:16.981Z,27.7
2017-07-28T12:04:19.009Z,27.8
2017-07-28T12:05:21.394Z,27.8
2017-07-28T12:06:23.766Z,27.9
2017-07-28T12:07:25.789Z,28
2017-07-28T12:08:28.188Z,28
2017-07-28T12:09:30.343Z,28.2
2017-07-28T12:10:32.733Z,28.2
2017-07-28T12:11:35.105Z,28.4
2017-07-28T12:12:37.483Z,28.4
2017-07-28T12:13:39.905Z,28.6
2017-07-28T12:14:42.640Z,28.7
2017-07-28T12:15:45.358Z,28.8
2017-07-28T12:16:47.403Z,28.9
2017-07-28T12:17:49.454Z,29
2017-07-28T12:18:51.827Z,29.1
2017-07-28T12:19:53.874Z,29.2
2017-07-28T12:20:56.254Z,29.2
2017-07-28T12:21:58.636Z,29.3
2017-07-28T12:23:00.678Z,29.4
2017-07-28T12:24:02.709Z,29.5
2017-07-28T12:25:05.464Z,29.6
2017-07-28T12:26:07.512Z,29.7
2017-07-28T12:27:09.883Z,29.8
2017-07-28T12:28:12.267Z,29.8
2017-07-28T12:29:14.319Z,29.8
2017-07-28T12:30:17.048Z,29.8
2017-07-28T12:31:19.428Z,29.8
2017-07-28T12:32:21.462Z,29.8
2017-07-28T12:33:23.865Z,29.7
2017-07-28T12:34:25.904Z,29.6
2017-07-28T12:35:27.941Z,29.5
2017-07-28T12:36:29.978Z,29.3
2017-07-28T12:37:32.016Z,29.2
2017-07-28T12:38:34.056Z,29
2017-07-28T12:39:36.444Z,28.9
2017-07-28T12:40:38.852Z,28.8
2017-07-28T12:41:40.896Z,28.7
2017-07-28T12:42:42.922Z,28.6
2017-07-28T12:43:45.294Z,28.6
2017-07-28T12:44:47.671Z,28.4
2017-07-28T12:45:49.725Z,28.4
2017-07-28T12:46:52.447Z,28.2
2017-07-28T12:47:54.500Z,28.1
2017-07-28T12:48:56.532Z,27.9
2017-07-28T12:49:58.566Z,27.7
2017-07-28T12:51:01.622Z,27.3
2017-07-28T12:52:04.003Z,27
2017-07-28T12:53:06.036Z,26.6
2017-07-28T12:54:08.075Z,26.2
2017-07-28T12:55:10.104Z,25.8
2017-07-28T12:56:12.156Z,25.4
2017-07-28T12:57:14.178Z,25
2017-07-28T12:58:16.210Z,24.8
2017-07-28T12:59:18.261Z,24.6
2017-07-28T13:00:20.665Z,24.4
2017-07-28T13:01:23.366Z,24.3
2017-07-28T13:02:25.748Z,24.1
2017-07-28T13:03:27.781Z,24.1
2017-07-28T13:04:29.817Z,24
2017-07-28T13:05:32.190Z,23.9
2017-07-28T13:06:34.573Z,23.8
2017-07-28T13:07:36.957Z,23.7
2017-07-28T13:08:39.319Z,23.7
2017-07-28T13:09:41.354Z,23.7
2017-07-28T13:10:43.386Z,23.7
2017-07-28T13:11:46.102Z,23.7
2017-07-28T13:12:48.134Z,23.7
2017-07-28T13:13:50.163Z,23.6
2017-07-28T13:14:52.871Z,23.6
2017-07-28T13:15:54.906Z,23.5
2017-07-28T13:16:56.939Z,23.4
2017-07-28T13:17:58.969Z,23.3
2017-07-28T13:19:01.696Z,23.3
2017-07-28T13:20:04.420Z,23.2
2017-07-28T13:21:06.450Z,23.1
2017-07-28T13:22:08.826Z,23.1
2017-07-28T13:23:10.862Z,23
2017-07-28T13:24:13.575Z,23
2017-07-28T13:25:15.602Z,23
2017-07-28T13:26:17.638Z,23
2017-07-28T13:27:19.674Z,23
2017-07-28T13:28:21.690Z,23
2017-07-28T13:29:24.057Z,23
2017-07-28T13:30:26.106Z,23.1
2017-07-28T13:31:28.128Z,23.1
2017-07-28T13:32:30.162Z,23.2
2017-07-28T13:33:32.521Z,23.2
2017-07-28T13:34:34.562Z,23.2
2017-07-28T13:35:36.963Z,23.2
2017-07-28T13:36:39.012Z,23.2
2017-07-28T13:37:41.042Z,23.2
2017-07-28T13:38:43.075Z,23.2
2017-07-28T13:39:45.444Z,23.2
2017-07-28T13:40:47.475Z,23.2
2017-07-28T13:41:49.498Z,23.2
2017-07-28T13:42:51.862Z,23.2
2017-07-28T13:43:53.895Z,23.2
2017-07-28T13:44:56.613Z,23.2
2017-07-28T13:45:58.639Z,23.2
2017-07-28T13:47:00.681Z,23.2
2017-07-28T13:48:03.044Z,23.2
2017-07-28T13:49:05.074Z,23.2
2017-07-28T13:50:07.447Z,23.2
2017-07-28T13:51:09.477Z,23.2
2017-07-28T13:52:11.855Z,23.2
2017-07-28T13:53:14.296Z,23.2
2017-07-28T13:54:16.669Z,23.2